Time;durP1;ratioP1;P1;durP2;ratioP2;P2;SDS_P1;SDS_P2;PMS_P1;PMS_P2;Temp;Humidity;BMP_temperature;BMP_pressure;BME280_temperature;BME280_humidity;BME280_pressure;Samples;Min_cycle;Max_cycle;Signal;HPM_P1;HPM_P2
2023/07/31 04:22:33;;;;;;;9.20;3.33;;;;;;;15.79;88.35;100132.13;5089599;28;20397;-67
2023/07/31 04:24:58;;;;;;;8.23;2.90;;;;;;;15.85;88.13;100141.22;5089314;28;20092;-67
2023/07/31 04:27:24;;;;;;;7.15;2.67;;;;;;;15.89;87.50;100127.13;5089388;28;20028;-67
2023/07/31 04:29:49;;;;;;;8.13;2.70;;;;;;;15.98;86.80;100131.25;5089107;28;20059;-67
2023/07/31 04:32:19;;;;;;;10.63;3.53;;;;;;;16.01;87.27;100138.06;5089481;28;20032;-66
2023/07/31 04:34:44;;;;;;;6.20;3.03;;;;;;;16.06;86.96;100140.13;5086233;28;20228;-67
2023/07/31 04:37:09;;;;;;;9.63;3.17;;;;;;;16.09;86.86;100126.25;5089436;28;20036;-67
2023/07/31 04:39:35;;;;;;;8.73;2.88;;;;;;;16.09;86.46;100126.25;5088910;28;20046;-67
2023/07/31 04:42:00;;;;;;;11.90;3.38;;;;;;;16.13;86.38;100120.25;5089103;28;20036;-67
2023/07/31 04:44:26;;;;;;;5.32;2.75;;;;;;;16.16;86.02;100119.00;5089166;28;20481;-67
2023/07/31 04:46:51;;;;;;;5.72;2.80;;;;;;;16.21;85.97;100127.25;5089020;28;20447;-67
2023/07/31 04:49:16;;;;;;;5.57;2.53;;;;;;;16.22;86.11;100123.53;5088895;28;20044;-67
2023/07/31 04:51:42;;;;;;;7.53;2.95;;;;;;;16.23;86.11;100125.16;5089104;28;20029;-67
2023/07/31 04:54:07;;;;;;;5.65;2.42;;;;;;;16.22;85.56;100129.72;5089053;28;20445;-66
2023/07/31 04:56:33;;;;;;;10.32;3.15;;;;;;;16.25;85.70;100123.09;5088908;28;20041;-67
2023/07/31 04:58:58;;;;;;;8.80;2.50;;;;;;;16.29;86.38;100122.44;5088531;28;20119;-67
2023/07/31 05:01:23;;;;;;;6.80;2.53;;;;;;;16.28;85.77;100123.50;5088725;28;20033;-67
2023/07/31 05:03:49;;;;;;;7.28;2.95;;;;;;;16.31;85.52;100113.38;5087505;28;20039;-67
2023/07/31 05:06:15;;;;;;;5.85;2.97;;;;;;;16.30;85.21;100117.94;5088629;28;20041;-67
2023/07/31 05:08:40;;;;;;;4.90;2.25;;;;;;;16.31;85.88;100116.88;5088448;28;20040;-68
2023/07/31 05:11:06;;;;;;;5.32;2.30;;;;;;;16.37;85.51;100113.34;5088666;28;20443;-67
2023/07/31 05:13:31;;;;;;;4.07;2.28;;;;;;;16.40;85.33;100118.28;5070186;28;20111;-67
2023/07/31 05:15:56;;;;;;;5.65;2.60;;;;;;;16.42;84.79;100113.50;5068201;28;20044;-68
2023/07/31 05:18:24;;;;;;;5.93;2.75;;;;;;;16.46;85.21;100111.22;5068031;28;20048;-66
2023/07/31 05:20:49;;;;;;;7.00;2.75;;;;;;;16.52;83.97;100113.06;5067997;28;20577;-66
2023/07/31 05:23:15;;;;;;;5.05;2.72;;;;;;;16.57;84.64;100112.41;5068189;28;20115;-66
2023/07/31 05:25:40;;;;;;;4.68;2.80;;;;;;;16.66;83.96;100119.19;5067952;28;20048;-66
2023/07/31 05:28:05;;;;;;;8.20;3.20;;;;;;;16.72;83.36;100119.16;5067934;28;20047;-66
2023/07/31 05:30:31;;;;;;;6.95;2.38;;;;;;;16.81;82.75;100115.16;5067623;28;20039;-66
2023/07/31 05:32:57;;;;;;;6.93;2.70;;;;;;;16.88;82.97;100117.00;5059975;28;20132;-67
2023/07/31 05:35:22;;;;;;;6.18;2.60;;;;;;;16.97;82.22;100107.63;5054666;28;20037;-67
2023/07/31 05:37:47;;;;;;;6.03;3.08;;;;;;;17.09;82.62;100116.66;5070608;28;20523;-67
2023/07/31 05:40:14;;;;;;;5.57;2.30;;;;;;;17.17;82.02;100112.84;5074221;28;20064;-67
2023/07/31 05:42:39;;;;;;;6.88;2.33;;;;;;;17.27;80.45;100113.16;5074498;28;20036;-67
2023/07/31 05:45:06;;;;;;;5.28;2.35;;;;;;;17.32;80.93;100114.16;5074379;28;20045;-67
2023/07/31 05:47:32;;;;;;;4.10;2.25;;;;;;;17.41;79.80;100120.13;5074474;28;20041;-66
2023/07/31 05:49:57;;;;;;;8.60;2.92;;;;;;;17.50;79.48;100112.56;5074190;28;20041;-67
2023/07/31 05:52:22;;;;;;;10.75;2.88;;;;;;;17.57;79.23;100113.31;5074359;28;20115;-66
2023/07/31 05:54:48;;;;;;;5.80;2.20;;;;;;;17.66;78.00;100106.59;5074430;28;20047;-66
2023/07/31 05:57:13;;;;;;;9.30;2.85;;;;;;;17.69;78.79;100103.47;5074177;28;20123;-66
2023/07/31 05:59:38;;;;;;;4.38;2.47;;;;;;;17.76;78.68;100106.13;5073957;28;20076;-66
2023/07/31 06:02:04;;;;;;;7.70;2.25;;;;;;;17.82;78.39;100114.13;5074212;28;20083;-66
2023/07/31 06:04:30;;;;;;;6.60;2.63;;;;;;;17.79;79.66;100108.34;5074144;28;20040;-66
2023/07/31 06:06:56;;;;;;;3.47;2.20;;;;;;;17.85;78.53;100113.69;5074118;28;20040;-63
2023/07/31 06:09:22;;;;;;;8.77;2.50;;;;;;;17.89;78.01;100105.97;5073849;28;20047;-62
2023/07/31 06:11:47;;;;;;;6.95;2.80;;;;;;;17.97;78.12;100104.84;5071072;28;20125;-63
2023/07/31 06:14:12;;;;;;;8.15;2.90;;;;;;;18.05;75.69;100094.59;5065237;28;20807;-63
2023/07/31 06:16:38;;;;;;;9.98;3.67;;;;;;;18.13;76.51;100104.25;5073856;28;20036;-63
2023/07/31 06:19:03;;;;;;;7.22;2.50;;;;;;;18.20;74.95;100101.47;5073819;28;20150;-63
2023/07/31 06:21:29;;;;;;;6.30;3.05;;;;;;;18.23;75.37;100104.53;5073683;28;20045;-63
2023/07/31 06:23:55;;;;;;;6.70;2.00;;;;;;;18.24;74.48;100097.28;5073992;28;20036;-63
2023/07/31 06:26:20;;;;;;;3.78;1.88;;;;;;;18.32;74.29;100113.13;5073828;28;20489;-62
2023/07/31 06:28:46;;;;;;;6.00;2.78;;;;;;;18.37;73.22;100103.31;5072526;28;20037;-64
2023/07/31 06:31:11;;;;;;;5.63;2.50;;;;;;;18.43;74.71;100110.50;5073693;28;20496;-64
2023/07/31 06:33:37;;;;;;;8.50;2.35;;;;;;;18.49;74.61;100111.47;5073737;28;20043;-64
2023/07/31 06:36:02;;;;;;;6.03;2.58;;;;;;;18.55;74.45;100105.16;5073573;28;20440;-63
2023/07/31 06:38:28;;;;;;;6.28;2.20;;;;;;;18.65;74.94;100110.00;5072152;28;20052;-63
2023/07/31 06:40:53;;;;;;;6.43;2.78;;;;;;;18.75;73.71;100101.38;5073532;28;20485;-63
2023/07/31 06:43:19;;;;;;;6.00;2.10;;;;;;;18.87;72.84;100104.94;5073294;28;20501;-63
2023/07/31 06:45:45;;;;;;;6.95;2.10;;;;;;;18.94;71.91;100108.34;5072559;28;20472;-64
2023/07/31 06:48:11;;;;;;;4.80;2.20;;;;;;;18.97;73.22;100102.47;5073444;28;20046;-65
2023/07/31 06:50:36;;;;;;;4.30;2.88;;;;;;;19.05;72.72;100104.03;5067833;28;20024;-65
2023/07/31 06:53:02;;;;;;;6.53;1.75;;;;;;;19.06;70.90;100100.28;5056280;28;20404;-64
2023/07/31 06:55:28;;;;;;;5.43;2.42;;;;;;;19.10;69.96;100113.06;5071109;28;20044;-63
2023/07/31 06:57:55;;;;;;;7.25;2.50;;;;;;;19.12;70.31;100102.88;5073169;28;20036;-63
2023/07/31 07:00:22;;;;;;;4.57;2.20;;;;;;;19.15;71.19;100093.47;5072917;28;20029;-63
2023/07/31 07:02:48;;;;;;;4.80;1.98;;;;;;;19.12;70.64;100091.25;5073164;28;20040;-63
2023/07/31 07:05:14;;;;;;;10.18;2.60;;;;;;;19.09;70.77;100087.13;5072932;28;20101;-63
2023/07/31 07:07:41;;;;;;;4.50;2.45;;;;;;;19.11;70.93;100084.22;5073096;28;20485;-62
2023/07/31 07:10:06;;;;;;;4.40;2.83;;;;;;;19.09;70.74;100084.44;5072593;28;20078;-62
2023/07/31 07:12:32;;;;;;;7.82;2.65;;;;;;;19.07;70.86;100086.56;5072922;28;20032;-62
2023/07/31 07:14:58;;;;;;;5.00;2.35;;;;;;;19.10;70.74;100079.84;5073119;28;20045;-63
2023/07/31 07:17:25;;;;;;;5.88;1.90;;;;;;;19.07;70.04;100085.72;5072663;28;20040;-63
2023/07/31 07:19:50;;;;;;;5.13;2.47;;;;;;;19.13;69.55;100074.81;5072650;28;20505;-62
2023/07/31 07:22:15;;;;;;;8.35;2.70;;;;;;;19.22;70.36;100073.41;5072717;28;20032;-62
2023/07/31 07:24:41;;;;;;;7.07;2.40;;;;;;;19.23;69.40;100074.22;5072929;28;20453;-63
2023/07/31 07:27:06;;;;;;;4.38;2.53;;;;;;;19.29;68.38;100076.00;5072871;28;20036;-63
2023/07/31 07:29:34;;;;;;;5.65;2.20;;;;;;;19.36;68.21;100073.19;5072884;28;20108;-63
2023/07/31 07:32:00;;;;;;;;;;;;;;;19.47;67.15;100080.47;5073428;28;20029;-62
2023/07/31 07:34:27;;;;;;;4.82;1.85;;;;;;;19.53;65.13;100077.66;5072631;28;19973;-63
2023/07/31 07:36:52;;;;;;;6.25;2.08;;;;;;;19.60;64.77;100069.44;5072440;28;20448;-63
2023/07/31 07:39:18;;;;;;;5.63;2.30;;;;;;;19.62;65.77;100061.91;5072186;28;20040;-61
2023/07/31 07:41:43;;;;;;;6.82;2.22;;;;;;;19.58;65.08;100068.88;5072448;28;20051;-64
2023/07/31 07:44:08;;;;;;;5.53;1.98;;;;;;;19.58;65.99;100066.16;5072287;28;20040;-62
2023/07/31 07:46:34;;;;;;;2.70;1.60;;;;;;;19.58;65.32;100065.34;5072302;28;20040;-61
2023/07/31 07:48:59;;;;;;;7.85;1.98;;;;;;;19.63;67.29;100062.75;5072041;28;20036;-62
2023/07/31 07:51:25;;;;;;;4.53;2.13;;;;;;;19.75;66.02;100055.44;5072118;28;20033;-63
2023/07/31 07:53:50;;;;;;;8.10;2.00;;;;;;;19.83;65.59;100054.28;5072055;28;20036;-63
2023/07/31 07:56:16;;;;;;;6.97;2.00;;;;;;;19.90;64.29;100055.78;5070655;28;20036;-63
2023/07/31 07:58:41;;;;;;;5.55;2.17;;;;;;;19.97;65.71;100053.75;5071900;28;20374;-63
2023/07/31 08:01:06;;;;;;;8.20;2.63;;;;;;;20.03;65.63;100057.38;5071964;28;20428;-62
2023/07/31 08:03:32;;;;;;;6.00;2.35;;;;;;;20.05;64.95;100066.88;5072155;28;20060;-64
2023/07/31 08:06:01;;;;;;;7.28;2.20;;;;;;;20.08;62.93;100067.47;5072103;28;20079;-63
2023/07/31 08:08:28;;;;;;;4.72;2.20;;;;;;;20.16;64.17;100059.00;5071712;28;20048;-62
2023/07/31 08:10:53;;;;;;;3.53;1.90;;;;;;;20.24;65.35;100064.84;5072171;28;20048;-62
2023/07/31 08:13:18;;;;;;;3.35;1.73;;;;;;;20.29;63.28;100072.22;5071896;28;20051;-62
2023/07/31 08:15:44;;;;;;;4.00;1.90;;;;;;;20.28;64.93;100067.88;5071871;28;20131;-62
2023/07/31 08:18:11;;;;;;;5.25;2.53;;;;;;;20.36;63.52;100062.09;5071844;28;20051;-61
2023/07/31 08:20:36;;;;;;;4.70;1.85;;;;;;;20.37;61.25;100057.50;5071589;28;20040;-62
2023/07/31 08:23:02;;;;;;;4.57;2.15;;;;;;;20.36;62.22;100056.69;5071916;28;20128;-62
2023/07/31 08:25:27;;;;;;;4.80;1.77;;;;;;;20.40;61.63;100048.88;5071765;28;20114;-62
2023/07/31 08:27:53;;;;;;;5.22;2.25;;;;;;;20.49;61.09;100053.72;5071783;28;20405;-62
2023/07/31 08:30:19;;;;;;;5.95;1.80;;;;;;;20.47;62.61;100049.59;5071567;28;20041;-63
2023/07/31 08:32:44;;;;;;;5.90;2.63;;;;;;;20.50;62.92;100051.81;5071776;28;20115;-63
2023/07/31 08:35:10;;;;;;;5.47;2.33;;;;;;;20.62;61.98;100058.00;5071682;28;20464;-63
2023/07/31 08:37:37;;;;;;;3.45;1.90;;;;;;;20.81;61.18;100045.88;5071948;28;20036;-63
2023/07/31 08:40:04;;;;;;;4.93;2.50;;;;;;;20.88;59.68;100043.00;5071448;28;20071;-63
2023/07/31 08:42:29;;;;;;;6.68;2.17;;;;;;;20.93;58.63;100034.13;5071592;28;20466;-63
2023/07/31 08:44:56;;;;;;;5.63;2.10;;;;;;;20.99;58.40;100038.56;5071667;28;20131;-63
2023/07/31 08:47:22;;;;;;;4.40;2.08;;;;;;;21.09;57.96;100022.50;5071532;28;20040;-63
2023/07/31 08:49:48;;;;;;;7.43;2.22;;;;;;;21.45;59.42;100033.84;5071356;28;20040;-62
2023/07/31 08:52:14;;;;;;;4.50;2.00;;;;;;;21.64;57.28;100030.59;5071540;28;20032;-63
2023/07/31 08:54:40;;;;;;;4.15;1.90;;;;;;;21.72;56.40;100032.09;5071586;28;20393;-62
2023/07/31 08:57:06;;;;;;;7.43;2.10;;;;;;;21.66;55.45;100028.50;5071482;28;20037;-63
2023/07/31 08:59:34;;;;;;;4.47;2.20;;;;;;;21.60;56.53;100024.06;5071227;28;20052;-63
2023/07/31 09:02:07;;;;;;;5.78;2.20;;;;;;;21.73;56.72;100028.28;5071374;28;20482;-63
2023/07/31 09:04:33;;;;;;;8.10;2.13;;;;;;;21.98;57.28;100021.56;5071549;28;20064;-63
2023/07/31 09:07:04;;;;;;;4.07;2.00;;;;;;;22.12;55.20;100022.81;5071367;28;20094;-62
2023/07/31 09:09:30;;;;;;;6.43;1.92;;;;;;;22.12;55.14;100017.41;5075106;28;20390;-63
2023/07/31 09:11:58;;;;;;;7.13;2.28;;;;;;;22.32;55.48;100017.63;5075160;28;20039;-63
2023/07/31 09:14:25;;;;;;;4.60;1.88;;;;;;;22.56;54.13;100003.72;5075078;28;20121;-63
2023/07/31 09:16:58;;;;;;;4.90;2.35;;;;;;;22.55;54.63;100002.06;5074890;28;20032;-63
2023/07/31 09:19:33;;;;;;;6.95;1.90;;;;;;;22.76;52.87;99995.75;5074604;28;20028;-62
2023/07/31 09:21:59;;;;;;;6.40;2.05;;;;;;;22.74;51.80;99987.03;5074774;28;20482;-62
2023/07/31 09:24:29;;;;;;;5.32;2.30;;;;;;;22.72;52.23;99991.91;5074870;28;20091;-63
2023/07/31 09:26:56;;;;;;;4.03;2.55;;;;;;;22.93;52.39;99979.34;5074801;28;20136;-63
2023/07/31 09:29:22;;;;;;;4.83;2.17;;;;;;;23.06;51.81;99988.94;5074669;28;20040;-62
2023/07/31 09:31:47;;;;;;;5.32;2.20;;;;;;;23.21;50.96;99981.72;5074682;28;20028;-63
2023/07/31 09:34:15;;;;;;;5.28;2.08;;;;;;;23.27;51.11;99982.53;5074655;28;20035;-62
2023/07/31 09:36:45;;;;;;;4.78;1.85;;;;;;;23.13;50.83;99976.75;5074715;28;20036;-63
2023/07/31 09:39:12;;;;;;;6.53;2.20;;;;;;;23.07;51.32;99985.13;5074381;28;20398;-63
2023/07/31 09:41:47;;;;;;;5.63;2.58;;;;;;;23.15;52.15;99980.03;5073329;28;20062;-63
2023/07/31 09:44:13;;;;;;;3.58;1.90;;;;;;;23.19;49.72;99975.72;5074600;28;20040;-63
2023/07/31 09:46:38;;;;;;;5.97;2.17;;;;;;;23.09;49.77;99970.22;5074324;28;20097;-63
2023/07/31 09:49:09;;;;;;;2.92;1.58;;;;;;;23.15;50.15;99965.66;5074180;28;20040;-64
2023/07/31 09:51:38;;;;;;;7.18;2.03;;;;;;;23.38;49.89;99964.41;5074646;28;20036;-63
2023/07/31 09:54:09;;;;;;;8.18;2.25;;;;;;;23.59;49.89;99965.31;5074451;28;20031;-61
2023/07/31 09:56:36;;;;;;;4.18;1.92;;;;;;;23.61;50.05;99972.16;5074361;28;20044;-63
2023/07/31 09:59:04;;;;;;;7.18;2.30;;;;;;;23.48;51.02;99965.28;5074061;28;20045;-63
2023/07/31 10:01:29;;;;;;;3.95;2.28;;;;;;;23.25;51.33;99960.25;5074100;28;20074;-63
2023/07/31 10:03:57;;;;;;;5.47;1.90;;;;;;;23.25;51.01;99961.06;5074226;28;20064;-62
2023/07/31 10:06:23;;;;;;;;;;;;;;;23.16;51.32;99957.22;5074662;28;20093;-63
2023/07/31 10:08:51;;;;;;;6.63;2.07;;;;;;;22.98;49.77;99954.94;5074281;28;19917;-62
2023/07/31 10:11:17;;;;;;;4.53;2.03;;;;;;;23.28;50.79;99943.44;5073943;28;20102;-64
2023/07/31 10:13:43;;;;;;;7.10;2.20;;;;;;;23.50;49.21;99944.06;5073972;28;20111;-63
2023/07/31 10:16:09;;;;;;;3.90;2.03;;;;;;;23.69;49.72;99957.22;5073816;28;20040;-63
2023/07/31 10:18:35;;;;;;;4.20;2.00;;;;;;;23.46;48.77;99936.72;5073690;28;20097;-63
2023/07/31 10:21:01;;;;;;;3.15;1.83;;;;;;;23.82;48.36;99945.84;5073774;28;20182;-63
2023/07/31 10:23:27;;;;;;;4.03;2.15;;;;;;;24.03;47.59;99958.41;5073828;28;20040;-63
2023/07/31 10:25:54;;;;;;;8.70;2.45;;;;;;;23.93;47.83;99944.81;5073720;28;20048;-63
2023/07/31 10:28:20;;;;;;;5.90;2.20;;;;;;;23.89;48.82;99946.41;5073474;28;20123;-63
2023/07/31 10:30:46;;;;;;;6.40;1.88;;;;;;;23.79;51.28;99943.66;5073511;28;20486;-63
2023/07/31 10:33:11;;;;;;;4.95;2.03;;;;;;;23.52;49.21;99954.66;5073680;28;20040;-63
2023/07/31 10:35:37;;;;;;;6.75;2.22;;;;;;;23.28;50.84;99949.69;5073454;28;20036;-63
2023/07/31 10:38:12;;;;;;;4.72;2.20;;;;;;;23.21;50.97;99950.97;5073515;28;20028;-63
2023/07/31 10:40:38;;;;;;;3.25;1.77;;;;;;;22.96;51.11;99951.69;5073643;28;20035;-64
2023/07/31 10:43:04;;;;;;;5.88;2.28;;;;;;;23.00;52.82;99950.88;5073415;28;20031;-63
2023/07/31 10:45:33;;;;;;;4.70;2.05;;;;;;;23.01;52.55;99952.50;5073199;28;20067;-62
2023/07/31 10:48:00;;;;;;;6.25;1.70;;;;;;;23.08;51.87;99962.31;5073264;28;20037;-63
2023/07/31 10:50:26;;;;;;;;;;;;;;;23.15;52.47;99957.50;5073404;28;20289;-63
2023/07/31 10:52:57;;;;;;;3.67;2.17;;;;;;;22.83;51.91;99944.78;5073228;28;19917;-63
2023/07/31 10:55:32;;;;;;;3.85;2.22;;;;;;;22.87;53.07;99954.03;5072979;28;20401;-63
2023/07/31 10:58:18;;;;;;;3.47;1.80;;;;;;;23.02;53.85;99946.00;5073116;28;20090;-63
2023/07/31 11:00:45;;;;;;;5.90;1.95;;;;;;;23.37;52.30;99933.69;5073448;28;20129;-63
2023/07/31 11:03:13;;;;;;;5.05;2.10;;;;;;;23.83;52.43;99944.75;5073114;28;20028;-63
2023/07/31 11:05:44;;;;;;;6.78;2.42;;;;;;;23.85;51.05;99942.59;5072829;28;20044;-62
2023/07/31 11:08:13;;;;;;;4.68;1.98;;;;;;;23.80;50.27;99937.16;5072841;28;20036;-63
2023/07/31 11:10:39;;;;;;;4.75;2.00;;;;;;;23.59;49.88;99925.34;5072576;28;20032;-63
2023/07/31 11:13:05;;;;;;;4.60;2.00;;;;;;;23.61;51.20;99931.38;5072818;28;20428;-63
2023/07/31 11:15:30;;;;;;;3.50;1.90;;;;;;;23.69;50.64;99924.59;5072630;28;20075;-63
2023/07/31 11:17:57;;;;;;;3.97;1.77;;;;;;;23.60;52.18;99916.09;5072766;28;20509;-63
2023/07/31 11:20:27;;;;;;;4.47;2.00;;;;;;;23.84;51.83;99924.63;5072251;28;20040;-63
2023/07/31 11:22:52;;;;;;;3.97;2.00;;;;;;;23.98;49.69;99925.75;5072702;28;20448;-63
2023/07/31 11:25:18;;;;;;;4.00;2.15;;;;;;;24.46;47.94;99901.06;5072658;28;20040;-63
2023/07/31 11:27:43;;;;;;;4.55;1.88;;;;;;;24.69;48.20;99905.94;5072512;28;20037;-63
2023/07/31 11:30:09;;;;;;;6.78;2.15;;;;;;;25.04;47.67;99906.94;5072065;28;20123;-63
2023/07/31 11:32:38;;;;;;;5.32;1.75;;;;;;;25.00;47.64;99906.69;5072293;28;20512;-63
2023/07/31 11:35:05;;;;;;;9.27;2.15;;;;;;;24.95;45.91;99909.41;5072392;28;20040;-64
2023/07/31 11:37:41;;;;;;;4.55;1.80;;;;;;;24.85;46.35;99904.00;5072410;28;20040;-63
2023/07/31 11:40:07;;;;;;;6.50;2.35;;;;;;;24.93;48.17;99898.00;5072193;28;20045;-63
2023/07/31 11:42:33;;;;;;;4.40;1.90;;;;;;;24.94;47.75;99913.25;5072353;28;20086;-64
2023/07/31 11:45:02;;;;;;;6.15;2.40;;;;;;;24.75;47.24;99899.38;5072379;28;20033;-63
2023/07/31 11:47:27;;;;;;;5.43;2.35;;;;;;;24.83;46.22;99906.19;5072165;28;20047;-63
2023/07/31 11:49:53;;;;;;;3.85;1.80;;;;;;;24.91;48.54;99900.19;5072060;28;20123;-64
2023/07/31 11:52:20;;;;;;;4.75;2.00;;;;;;;25.15;47.72;99892.22;5072152;28;20037;-63
2023/07/31 11:54:46;;;;;;;3.40;1.55;;;;;;;25.66;46.70;99890.09;5072177;28;20421;-63
2023/07/31 11:57:12;;;;;;;3.75;1.90;;;;;;;26.08;44.70;99894.22;5072143;28;20412;-62
2023/07/31 11:59:38;;;;;;;4.78;3.20;;;;;;;26.00;44.39;99885.81;5071674;28;20485;-62
2023/07/31 12:02:04;;;;;;;6.20;1.92;;;;;;;25.56;45.14;99881.97;5072186;28;20055;-62
2023/07/31 12:04:30;;;;;;;6.60;1.95;;;;;;;25.57;44.95;99885.53;5072097;28;20094;-62
2023/07/31 12:06:56;;;;;;;4.28;1.67;;;;;;;25.33;45.14;99879.91;5071943;28;20047;-62
2023/07/31 12:09:21;;;;;;;4.13;1.60;;;;;;;25.59;44.99;99875.94;5071752;28;20047;-63
2023/07/31 12:11:47;;;;;;;5.82;2.20;;;;;;;25.26;47.09;99863.84;5071913;28;20037;-63
2023/07/31 12:14:26;;;;;;;6.15;2.03;;;;;;;25.04;47.65;99874.25;5071848;28;20041;-63
2023/07/31 12:17:00;;;;;;;3.53;1.90;;;;;;;25.01;47.59;99869.38;5071833;28;20045;-63
2023/07/31 12:19:29;;;;;;;4.90;1.73;;;;;;;24.97;46.86;99857.38;5071663;28;20532;-63
2023/07/31 12:21:56;;;;;;;4.68;1.92;;;;;;;25.77;45.77;99849.16;5072080;28;20067;-63
2023/07/31 12:24:21;;;;;;;4.67;2.27;;;;;;;25.99;45.41;99852.25;5072105;28;20132;-63
2023/07/31 12:26:48;;;;;;;4.80;2.00;;;;;;;26.25;44.13;99839.22;5071968;28;20128;-63
2023/07/31 12:29:14;;;;;;;3.15;1.80;;;;;;;26.14;45.96;99834.94;5071665;28;20028;-63
2023/07/31 12:31:41;;;;;;;4.85;1.67;;;;;;;26.15;45.67;99831.94;5071738;28;20041;-63
2023/07/31 12:34:16;;;;;;;6.13;2.15;;;;;;;25.63;46.53;99843.50;5071862;28;20049;-63
2023/07/31 12:36:42;;;;;;;5.30;2.20;;;;;;;25.43;47.30;99844.44;5071712;28;20063;-63
2023/07/31 12:39:08;;;;;;;5.55;2.03;;;;;;;25.33;46.29;99839.03;5071571;28;20029;-63
2023/07/31 12:41:33;;;;;;;7.00;2.35;;;;;;;24.93;47.34;99837.25;5071653;28;20035;-63
2023/07/31 12:43:59;;;;;;;4.68;2.20;;;;;;;24.48;46.80;99833.56;5074983;28;20028;-62
2023/07/31 12:46:24;;;;;;;2.63;1.70;;;;;;;24.52;49.10;99834.66;5075643;28;20105;-62
2023/07/31 12:48:49;;;;;;;6.88;2.38;;;;;;;24.42;50.43;99831.94;5075495;28;20063;-62
2023/07/31 12:51:15;;;;;;;3.70;2.10;;;;;;;24.42;51.24;99829.22;5075502;28;20397;-63
2023/07/31 12:53:40;;;;;;;2.90;2.22;;;;;;;24.26;50.70;99825.66;5075537;28;20119;-63
2023/07/31 12:56:06;;;;;;;5.47;2.17;;;;;;;24.15;50.18;99813.16;5075213;28;20028;-61
2023/07/31 12:58:31;;;;;;;5.30;2.00;;;;;;;24.16;51.82;99804.72;5074818;28;20478;-62
2023/07/31 13:00:57;;;;;;;3.72;1.95;;;;;;;24.25;51.77;99804.97;5075529;28;20108;-60
2023/07/31 13:03:22;;;;;;;2.95;1.70;;;;;;;24.45;50.63;99805.00;5075387;28;20632;-54
2023/07/31 13:05:47;;;;;;;4.93;1.88;;;;;;;24.61;51.23;99817.47;5075310;28;20036;-55
2023/07/31 13:08:15;;;;;;;6.60;2.28;;;;;;;24.76;49.66;99808.44;5075295;28;20033;-53
2023/07/31 13:10:41;;;;;;;2.97;1.80;;;;;;;24.89;49.66;99804.28;5074957;28;20041;-50
2023/07/31 13:13:06;;;;;;;3.92;2.30;;;;;;;24.94;48.01;99793.38;5075212;28;20033;-54
2023/07/31 13:15:32;;;;;;;4.32;2.30;;;;;;;24.83;48.51;99789.06;5075080;28;20090;-55
2023/07/31 13:17:57;;;;;;;3.58;1.77;;;;;;;24.60;48.65;99788.59;5075141;28;20127;-54
2023/07/31 13:20:23;;;;;;;4.43;1.83;;;;;;;24.69;49.00;99783.41;5074757;28;20076;-52
2023/07/31 13:22:48;;;;;;;4.78;2.08;;;;;;;24.51;49.48;99784.00;5075019;28;20048;-51
2023/07/31 13:25:14;;;;;;;4.07;2.42;;;;;;;24.30;48.90;99780.47;5074786;28;20033;-55
2023/07/31 13:27:39;;;;;;;4.80;2.13;;;;;;;24.34;50.39;99779.69;5074796;28;20036;-55
2023/07/31 13:30:05;;;;;;;7.00;2.00;;;;;;;24.29;51.24;99776.94;5074593;28;20406;-51
2023/07/31 13:32:31;;;;;;;3.00;2.00;;;;;;;24.40;51.17;99775.06;5074727;28;20059;-55
2023/07/31 13:34:56;;;;;;;4.15;2.30;;;;;;;24.39;50.88;99778.03;5074784;28;20037;-52
2023/07/31 13:37:22;;;;;;;6.97;2.00;;;;;;;24.35;50.83;99781.31;5074652;28;20090;-55
2023/07/31 13:39:47;;;;;;;3.42;1.80;;;;;;;24.34;51.14;99776.97;5074392;28;20437;-53
2023/07/31 13:42:12;;;;;;;3.20;1.80;;;;;;;24.14;52.19;99779.69;5074625;28;20565;-51
2023/07/31 13:44:39;;;;;;;3.88;2.15;;;;;;;24.23;52.33;99777.22;5074466;28;20039;-57
2023/07/31 13:47:05;;;;;;;4.27;1.87;;;;;;;23.97;51.09;99766.34;5074433;28;20064;-54
2023/07/31 13:49:30;;;;;;;4.05;2.10;;;;;;;23.96;51.12;99766.63;5074290;28;20044;-54
2023/07/31 13:51:57;;;;;;;6.25;2.13;;;;;;;24.00;51.75;99771.28;5074389;28;20089;-52
2023/07/31 13:54:23;;;;;;;8.60;2.05;;;;;;;24.09;52.09;99755.19;5069679;28;20040;-56
2023/07/31 13:56:49;;;;;;;5.72;1.80;;;;;;;24.07;51.43;99757.38;5074248;28;20447;-55
2023/07/31 13:59:17;;;;;;;3.50;1.60;;;;;;;24.10;51.33;99757.63;5073981;28;20040;-55
2023/07/31 14:01:43;;;;;;;5.07;2.20;;;;;;;23.99;51.23;99756.00;5074291;28;20060;-53
2023/07/31 14:04:09;;;;;;;8.52;2.20;;;;;;;23.89;50.67;99753.31;5074237;28;20040;-55
2023/07/31 14:06:35;;;;;;;4.70;1.77;;;;;;;23.78;52.04;99757.94;5074108;28;20040;-56
2023/07/31 14:09:00;;;;;;;6.55;2.47;;;;;;;23.63;51.78;99740.81;5073845;28;20032;-53
2023/07/31 14:11:26;;;;;;;5.45;2.10;;;;;;;23.64;53.29;99750.59;5073964;28;20481;-53
2023/07/31 14:13:52;;;;;;;4.68;2.20;;;;;;;23.64;53.32;99756.84;5074058;28;20047;-54
2023/07/31 14:16:17;;;;;;;4.88;2.00;;;;;;;23.62;54.13;99752.78;5073923;28;20032;-52
2023/07/31 14:18:45;;;;;;;4.80;2.03;;;;;;;23.59;54.37;99743.22;5073706;28;20382;-53
2023/07/31 14:21:10;;;;;;;6.03;2.35;;;;;;;23.70;53.89;99750.31;5073898;28;20037;-57
2023/07/31 14:23:35;;;;;;;3.78;2.20;;;;;;;23.70;53.98;99754.94;5073902;28;20523;-54
2023/07/31 14:26:01;;;;;;;5.47;2.15;;;;;;;23.62;54.76;99761.75;5073791;28;20028;-54
2023/07/31 14:28:26;;;;;;;4.20;2.15;;;;;;;23.63;54.00;99755.22;5073609;28;20123;-51
2023/07/31 14:30:52;;;;;;;3.45;1.98;;;;;;;23.62;55.01;99750.06;5073753;28;20032;-56
2023/07/31 14:33:17;;;;;;;4.10;2.10;;;;;;;23.59;54.47;99745.13;5073713;28;20477;-55
2023/07/31 14:35:43;;;;;;;5.63;2.25;;;;;;;23.58;53.74;99743.50;5073601;28;20078;-54
2023/07/31 14:38:08;;;;;;;4.05;2.25;;;;;;;23.54;52.92;99738.59;5073564;28;20035;-52
2023/07/31 14:40:34;;;;;;;4.78;2.17;;;;;;;23.58;54.59;99730.72;5073217;28;20044;-57
2023/07/31 14:42:59;;;;;;;3.70;1.83;;;;;;;23.67;54.25;99714.69;5073468;28;20028;-56
2023/07/31 14:45:24;;;;;;;3.53;2.00;;;;;;;23.77;53.37;99717.41;5073315;28;20044;-55
2023/07/31 14:47:50;;;;;;;4.25;2.33;;;;;;;23.90;53.21;99707.91;5073373;28;20044;-52
2023/07/31 14:50:16;;;;;;;5.75;2.05;;;;;;;23.99;53.11;99706.25;5073044;28;20058;-56
2023/07/31 14:52:41;;;;;;;4.07;1.92;;;;;;;24.08;55.00;99701.88;5073127;28;20032;-52
2023/07/31 14:55:08;;;;;;;3.58;1.95;;;;;;;24.16;53.51;99705.94;5073031;28;20425;-56
2023/07/31 14:57:33;;;;;;;3.25;1.85;;;;;;;24.21;52.67;99695.06;5073271;28;20067;-54
2023/07/31 14:59:59;;;;;;;3.40;2.03;;;;;;;24.24;52.84;99695.31;5072990;28;20074;-53
2023/07/31 15:02:25;;;;;;;4.38;1.92;;;;;;;24.19;52.02;99687.19;5072988;28;20112;-56
2023/07/31 15:04:51;;;;;;;5.00;2.33;;;;;;;24.17;52.74;99678.47;5072460;28;20037;-52
2023/07/31 15:07:16;;;;;;;4.78;2.03;;;;;;;24.23;53.23;99669.19;5072693;28;20037;-55
2023/07/31 15:09:42;;;;;;;5.07;1.95;;;;;;;24.20;53.91;99660.78;5072765;28;20048;-55
2023/07/31 15:12:07;;;;;;;6.25;2.40;;;;;;;24.27;52.83;99655.88;5072793;28;20047;-55
2023/07/31 15:14:34;;;;;;;3.22;1.88;;;;;;;24.22;52.34;99655.88;5073071;28;20040;-55
2023/07/31 15:16:59;;;;;;;7.10;2.22;;;;;;;24.22;52.81;99648.53;5072708;28;20131;-53
2023/07/31 15:19:25;;;;;;;4.30;1.90;;;;;;;24.24;52.30;99642.78;5072548;28;20111;-52
2023/07/31 15:21:50;;;;;;;6.22;2.05;;;;;;;24.20;52.24;99636.28;5072600;28;20482;-56
2023/07/31 15:24:16;;;;;;;3.97;2.22;;;;;;;24.28;52.91;99633.81;5072611;28;20064;-56
2023/07/31 15:26:44;;;;;;;4.95;2.20;;;;;;;24.27;53.70;99637.63;5072598;28;20032;-53
2023/07/31 15:29:11;;;;;;;9.20;2.33;;;;;;;24.35;52.54;99644.44;5072335;28;20117;-56
2023/07/31 15:31:38;;;;;;;6.90;2.22;;;;;;;24.28;52.92;99638.44;5072680;28;20048;-56
2023/07/31 15:34:03;;;;;;;5.97;1.98;;;;;;;24.34;53.58;99632.72;5072728;28;20064;-52
2023/07/31 15:36:29;;;;;;;3.92;2.00;;;;;;;24.40;53.66;99643.59;5072647;28;20133;-56
2023/07/31 15:38:54;;;;;;;5.10;2.08;;;;;;;24.31;53.65;99644.13;5072537;28;20036;-55
2023/07/31 15:41:19;;;;;;;5.57;2.08;;;;;;;24.21;53.34;99635.19;5072622;28;20029;-55
2023/07/31 15:43:45;;;;;;;3.63;2.00;;;;;;;24.12;52.59;99634.13;5072366;28;20569;-56
2023/07/31 15:46:11;;;;;;;3.55;2.05;;;;;;;24.08;54.00;99633.88;5072291;28;20524;-53